sensor_id;sensor_type;location;lat;lon;timestamp;pressure;altitude;pressure_sealevel;temperature;humidity
76973;BME280;65907;53.640;10.050;2023-02-25T00:01:55;99320.66;;;22.52;35.70
76973;BME280;65907;53.640;10.050;2023-02-25T00:04:20;99325.72;;;22.53;35.85
76973;BME280;65907;53.640;10.050;2023-02-25T00:06:46;99324.25;;;22.51;35.89
76973;BME280;65907;53.640;10.050;2023-02-25T00:09:11;99324.75;;;22.54;35.76
76973;BME280;65907;53.640;10.050;2023-02-25T00:11:36;99329.63;;;22.57;36.16
76973;BME280;65907;53.640;10.050;2023-02-25T00:14:02;99336.00;;;22.55;35.90
76973;BME280;65907;53.640;10.050;2023-02-25T00:16:27;99328.50;;;22.52;35.83
76973;BME280;65907;53.640;10.050;2023-02-25T00:18:56;99344.50;;;22.57;35.76
76973;BME280;65907;53.640;10.050;2023-02-25T00:21:26;99328.34;;;22.53;35.52
76973;BME280;65907;53.640;10.050;2023-02-25T00:23:53;99328.63;;;22.58;35.37
76973;BME280;65907;53.640;10.050;2023-02-25T00:26:18;99337.50;;;22.57;35.36
76973;BME280;65907;53.640;10.050;2023-02-25T00:28:43;99333.41;;;22.55;35.51
76973;BME280;65907;53.640;10.050;2023-02-25T00:31:10;99332.59;;;22.46;35.64
76973;BME280;65907;53.640;10.050;2023-02-25T00:33:35;99329.88;;;22.39;35.91
76973;BME280;65907;53.640;10.050;2023-02-25T00:36:04;99333.44;;;22.46;35.64
76973;BME280;65907;53.640;10.050;2023-02-25T00:38:29;99341.25;;;22.55;35.66
76973;BME280;65907;53.640;10.050;2023-02-25T00:40:54;99335.38;;;22.53;35.34
76973;BME280;65907;53.640;10.050;2023-02-25T00:43:20;99344.41;;;22.50;35.62
76973;BME280;65907;53.640;10.050;2023-02-25T00:45:45;99348.19;;;22.47;35.40
76973;BME280;65907;53.640;10.050;2023-02-25T00:48:11;99348.97;;;22.48;35.46
76973;BME280;65907;53.640;10.050;2023-02-25T00:50:37;99352.44;;;22.48;35.66
76973;BME280;65907;53.640;10.050;2023-02-25T00:53:03;99354.41;;;22.46;35.65
76973;BME280;65907;53.640;10.050;2023-02-25T00:55:31;99365.53;;;22.48;35.34
76973;BME280;65907;53.640;10.050;2023-02-25T00:58:02;99357.66;;;22.48;35.94
76973;BME280;65907;53.640;10.050;2023-02-25T01:00:27;99365.69;;;22.47;35.40
76973;BME280;65907;53.640;10.050;2023-02-25T01:02:54;99376.31;;;22.45;35.63
76973;BME280;65907;53.640;10.050;2023-02-25T01:05:20;99367.50;;;22.46;35.55
76973;BME280;65907;53.640;10.050;2023-02-25T01:07:45;99357.50;;;22.42;35.80
76973;BME280;65907;53.640;10.050;2023-02-25T01:10:10;99357.03;;;22.46;35.67
76973;BME280;65907;53.640;10.050;2023-02-25T01:12:36;99372.06;;;22.44;35.54
76973;BME280;65907;53.640;10.050;2023-02-25T01:15:02;99370.91;;;22.47;35.44
76973;BME280;65907;53.640;10.050;2023-02-25T01:17:27;99360.59;;;22.45;35.67
76973;BME280;65907;53.640;10.050;2023-02-25T01:19:55;99379.94;;;22.36;35.93
76973;BME280;65907;53.640;10.050;2023-02-25T01:22:21;99380.78;;;22.37;35.51
76973;BME280;65907;53.640;10.050;2023-02-25T01:24:49;99380.44;;;22.40;35.56
76973;BME280;65907;53.640;10.050;2023-02-25T01:27:15;99383.88;;;22.40;35.63
76973;BME280;65907;53.640;10.050;2023-02-25T01:29:40;99387.47;;;22.39;35.75
76973;BME280;65907;53.640;10.050;2023-02-25T01:32:10;99389.25;;;22.47;35.43
76973;BME280;65907;53.640;10.050;2023-02-25T01:34:40;99390.56;;;22.43;35.73
76973;BME280;65907;53.640;10.050;2023-02-25T01:37:05;99391.19;;;22.45;35.55
76973;BME280;65907;53.640;10.050;2023-02-25T01:39:30;99397.97;;;22.39;35.56
76973;BME280;65907;53.640;10.050;2023-02-25T01:41:56;99407.09;;;22.43;35.74
76973;BME280;65907;53.640;10.050;2023-02-25T01:44:23;99406.47;;;22.41;35.73
76973;BME280;65907;53.640;10.050;2023-02-25T01:46:50;99409.72;;;22.43;35.67
76973;BME280;65907;53.640;10.050;2023-02-25T01:49:21;99411.50;;;22.43;35.74
76973;BME280;65907;53.640;10.050;2023-02-25T01:51:50;99425.44;;;22.43;35.39
76973;BME280;65907;53.640;10.050;2023-02-25T01:54:16;99417.91;;;22.40;35.54
76973;BME280;65907;53.640;10.050;2023-02-25T01:56:43;99413.50;;;22.41;35.28
76973;BME280;65907;53.640;10.050;2023-02-25T01:59:09;99419.56;;;22.41;35.37
76973;BME280;65907;53.640;10.050;2023-02-25T02:01:35;99420.53;;;22.40;35.42
76973;BME280;65907;53.640;10.050;2023-02-25T02:04:04;99421.84;;;22.36;35.34
76973;BME280;65907;53.640;10.050;2023-02-25T02:06:35;99427.56;;;22.40;35.38
76973;BME280;65907;53.640;10.050;2023-02-25T02:09:02;99428.41;;;22.40;35.61
76973;BME280;65907;53.640;10.050;2023-02-25T02:11:28;99431.19;;;22.39;35.37
76973;BME280;65907;53.640;10.050;2023-02-25T02:13:55;99431.66;;;22.42;35.13
76973;BME280;65907;53.640;10.050;2023-02-25T02:22:09;99433.00;;;22.38;35.52
76973;BME280;65907;53.640;10.050;2023-02-25T02:24:44;99435.44;;;22.40;35.43
76973;BME280;65907;53.640;10.050;2023-02-25T02:27:20;99441.66;;;22.39;35.16
76973;BME280;65907;53.640;10.050;2023-02-25T02:30:09;99440.16;;;22.36;35.54
76973;BME280;65907;53.640;10.050;2023-02-25T02:35:55;99445.41;;;22.36;35.37
76973;BME280;65907;53.640;10.050;2023-02-25T02:37:59;99448.53;;;22.40;35.49
76973;BME280;65907;53.640;10.050;2023-02-25T02:40:40;99455.09;;;22.35;35.07
76973;BME280;65907;53.640;10.050;2023-02-25T02:45:48;99459.81;;;22.40;35.34
76973;BME280;65907;53.640;10.050;2023-02-25T02:48:27;99449.03;;;22.35;35.34
76973;BME280;65907;53.640;10.050;2023-02-25T02:50:56;99455.25;;;22.34;35.55
76973;BME280;65907;53.640;10.050;2023-02-25T02:53:29;99463.75;;;22.36;35.07
76973;BME280;65907;53.640;10.050;2023-02-25T02:55:56;99463.25;;;22.41;35.14
76973;BME280;65907;53.640;10.050;2023-02-25T02:58:27;99463.75;;;22.36;35.17
76973;BME280;65907;53.640;10.050;2023-02-25T03:00:57;99464.72;;;22.35;35.12
76973;BME280;65907;53.640;10.050;2023-02-25T03:03:27;99458.84;;;22.33;35.28
76973;BME280;65907;53.640;10.050;2023-02-25T03:06:00;99462.28;;;22.33;35.23
76973;BME280;65907;53.640;10.050;2023-02-25T03:08:27;99461.31;;;22.34;35.21
76973;BME280;65907;53.640;10.050;2023-02-25T03:10:53;99456.22;;;22.33;35.01
76973;BME280;65907;53.640;10.050;2023-02-25T03:13:21;99475.38;;;22.33;35.35
76973;BME280;65907;53.640;10.050;2023-02-25T03:15:46;99473.22;;;22.37;34.91
76973;BME280;65907;53.640;10.050;2023-02-25T03:21:06;99479.16;;;22.31;35.32
76973;BME280;65907;53.640;10.050;2023-02-25T03:23:35;99482.06;;;22.36;34.89
76973;BME280;65907;53.640;10.050;2023-02-25T03:26:07;99479.16;;;22.31;34.88
76973;BME280;65907;53.640;10.050;2023-02-25T03:28:35;99479.16;;;22.39;35.15
76973;BME280;65907;53.640;10.050;2023-02-25T03:36:42;99498.13;;;22.33;35.14
76973;BME280;65907;53.640;10.050;2023-02-25T03:39:28;99500.41;;;22.36;35.24
76973;BME280;65907;53.640;10.050;2023-02-25T03:41:58;99505.34;;;22.39;35.12
76973;BME280;65907;53.640;10.050;2023-02-25T03:44:27;99514.19;;;22.38;34.88
76973;BME280;65907;53.640;10.050;2023-02-25T03:46:55;99512.06;;;22.33;34.98
76973;BME280;65907;53.640;10.050;2023-02-25T03:49:23;99523.00;;;22.37;34.77
76973;BME280;65907;53.640;10.050;2023-02-25T03:51:53;99518.75;;;22.36;35.25
76973;BME280;65907;53.640;10.050;2023-02-25T03:54:23;99516.81;;;22.38;34.78
76973;BME280;65907;53.640;10.050;2023-02-25T03:56:50;99524.81;;;22.37;34.81
76973;BME280;65907;53.640;10.050;2023-02-25T03:59:16;99532.50;;;22.30;34.94
76973;BME280;65907;53.640;10.050;2023-02-25T04:01:41;99526.78;;;22.34;34.94
76973;BME280;65907;53.640;10.050;2023-02-25T04:04:08;99532.81;;;22.35;34.76
76973;BME280;65907;53.640;10.050;2023-02-25T04:06:33;99537.41;;;22.33;35.08
76973;BME280;65907;53.640;10.050;2023-02-25T04:09:01;99540.69;;;22.35;35.13
76973;BME280;65907;53.640;10.050;2023-02-25T04:11:30;99550.50;;;22.33;34.81
76973;BME280;65907;53.640;10.050;2023-02-25T04:13:55;99542.19;;;22.29;35.24
76973;BME280;65907;53.640;10.050;2023-02-25T04:16:20;99546.91;;;22.34;34.90
76973;BME280;65907;53.640;10.050;2023-02-25T04:18:45;99555.59;;;22.34;34.87
76973;BME280;65907;53.640;10.050;2023-02-25T04:23:55;99559.00;;;22.35;35.15
76973;BME280;65907;53.640;10.050;2023-02-25T04:26:20;99563.59;;;22.33;35.01
76973;BME280;65907;53.640;10.050;2023-02-25T04:28:46;99558.03;;;22.28;35.00
76973;BME280;65907;53.640;10.050;2023-02-25T04:31:11;99563.13;;;22.29;34.88
76973;BME280;65907;53.640;10.050;2023-02-25T04:33:37;99569.66;;;22.33;34.89
76973;BME280;65907;53.640;10.050;2023-02-25T04:36:05;99573.09;;;22.34;34.84
76973;BME280;65907;53.640;10.050;2023-02-25T04:38:48;99581.28;;;22.23;34.81
76973;BME280;65907;53.640;10.050;2023-02-25T04:41:13;99570.81;;;22.39;34.69
76973;BME280;65907;53.640;10.050;2023-02-25T04:43:38;99591.41;;;22.34;34.79
76973;BME280;65907;53.640;10.050;2023-02-25T04:46:05;99585.53;;;22.32;34.73
76973;BME280;65907;53.640;10.050;2023-02-25T04:48:37;99588.66;;;22.35;34.69
76973;BME280;65907;53.640;10.050;2023-02-25T04:51:08;99582.91;;;22.32;34.82
76973;BME280;65907;53.640;10.050;2023-02-25T04:53:35;99588.47;;;22.29;34.86
76973;BME280;65907;53.640;10.050;2023-02-25T04:56:03;99588.97;;;22.32;34.84
76973;BME280;65907;53.640;10.050;2023-02-25T04:58:29;99587.81;;;22.35;34.94
76973;BME280;65907;53.640;10.050;2023-02-25T05:00:54;99585.72;;;22.30;34.82
76973;BME280;65907;53.640;10.050;2023-02-25T05:03:22;99586.50;;;22.31;34.95
76973;BME280;65907;53.640;10.050;2023-02-25T05:05:55;99586.19;;;22.34;34.66
76973;BME280;65907;53.640;10.050;2023-02-25T05:08:21;99574.41;;;22.30;34.50
76973;BME280;65907;53.640;10.050;2023-02-25T05:10:46;99573.75;;;22.36;34.36
76973;BME280;65907;53.640;10.050;2023-02-25T05:13:14;99574.06;;;22.33;34.85
76973;BME280;65907;53.640;10.050;2023-02-25T05:15:41;99576.88;;;22.31;34.61
76973;BME280;65907;53.640;10.050;2023-02-25T05:18:06;99579.31;;;22.33;34.82
76973;BME280;65907;53.640;10.050;2023-02-25T05:20:32;99580.63;;;22.37;34.62
76973;BME280;65907;53.640;10.050;2023-02-25T05:22:57;99579.16;;;22.34;34.66
76973;BME280;65907;53.640;10.050;2023-02-25T05:25:22;99589.16;;;22.39;34.52
76973;BME280;65907;53.640;10.050;2023-02-25T05:27:48;99587.00;;;22.34;34.77
76973;BME280;65907;53.640;10.050;2023-02-25T05:30:13;99585.38;;;22.33;34.49
76973;BME280;65907;53.640;10.050;2023-02-25T05:32:38;99588.47;;;22.29;34.85
76973;BME280;65907;53.640;10.050;2023-02-25T05:35:06;99592.59;;;22.31;34.97
76973;BME280;65907;53.640;10.050;2023-02-25T05:37:35;99592.59;;;22.31;34.58
76973;BME280;65907;53.640;10.050;2023-02-25T05:40:01;99607.78;;;22.28;34.53
76973;BME280;65907;53.640;10.050;2023-02-25T05:42:26;99603.41;;;22.28;34.84
76973;BME280;65907;53.640;10.050;2023-02-25T05:44:52;99613.03;;;22.36;34.46
76973;BME280;65907;53.640;10.050;2023-02-25T05:47:17;99611.25;;;22.28;34.77
76973;BME280;65907;53.640;10.050;2023-02-25T05:49:42;99622.19;;;22.32;34.70
76973;BME280;65907;53.640;10.050;2023-02-25T05:52:08;99615.66;;;22.28;34.72
76973;BME280;65907;53.640;10.050;2023-02-25T05:54:33;99626.47;;;22.25;34.68
76973;BME280;65907;53.640;10.050;2023-02-25T05:56:58;99627.28;;;22.33;34.66
76973;BME280;65907;53.640;10.050;2023-02-25T05:59:24;99639.53;;;22.33;34.42
76973;BME280;65907;53.640;10.050;2023-02-25T06:01:49;99638.06;;;22.22;34.87
76973;BME280;65907;53.640;10.050;2023-02-25T06:04:14;99648.06;;;22.27;34.38
76973;BME280;65907;53.640;10.050;2023-02-25T06:06:39;99657.72;;;22.26;34.74
76973;BME280;65907;53.640;10.050;2023-02-25T06:09:06;99658.53;;;22.27;34.85
76973;BME280;65907;53.640;10.050;2023-02-25T06:11:31;99669.34;;;22.32;34.44
76973;BME280;65907;53.640;10.050;2023-02-25T06:13:59;99665.41;;;22.28;34.26
76973;BME280;65907;53.640;10.050;2023-02-25T06:16:25;99672.13;;;22.30;34.74
76973;BME280;65907;53.640;10.050;2023-02-25T06:18:56;99681.13;;;22.28;34.38
76973;BME280;65907;53.640;10.050;2023-02-25T06:21:24;99688.97;;;22.36;34.28
76973;BME280;65907;53.640;10.050;2023-02-25T06:23:50;99688.50;;;22.32;34.53
76973;BME280;65907;53.640;10.050;2023-02-25T06:26:18;99702.06;;;22.28;34.90
76973;BME280;65907;53.640;10.050;2023-02-25T06:28:43;99693.41;;;22.35;34.15
76973;BME280;65907;53.640;10.050;2023-02-25T06:31:09;99709.59;;;22.31;34.53
76973;BME280;65907;53.640;10.050;2023-02-25T06:33:38;99714.84;;;22.31;34.42
76973;BME280;65907;53.640;10.050;2023-02-25T06:36:07;99720.59;;;22.34;34.37
76973;BME280;65907;53.640;10.050;2023-02-25T06:38:33;99719.94;;;22.32;34.25
76973;BME280;65907;53.640;10.050;2023-02-25T06:40:58;99717.97;;;22.34;34.45
76973;BME280;65907;53.640;10.050;2023-02-25T06:43:23;99720.59;;;22.34;34.34
76973;BME280;65907;53.640;10.050;2023-02-25T06:45:48;99724.50;;;22.30;34.18
76973;BME280;65907;53.640;10.050;2023-02-25T06:48:14;99724.66;;;22.29;34.25
76973;BME280;65907;53.640;10.050;2023-02-25T06:50:39;99732.38;;;22.30;34.58
76973;BME280;65907;53.640;10.050;2023-02-25T06:53:05;99734.47;;;22.27;34.53
76973;BME280;65907;53.640;10.050;2023-02-25T06:55:33;99731.91;;;22.43;34.59
76973;BME280;65907;53.640;10.050;2023-02-25T06:57:58;99740.06;;;22.40;34.57
76973;BME280;65907;53.640;10.050;2023-02-25T07:00:24;99750.59;;;22.57;35.04
76973;BME280;65907;53.640;10.050;2023-02-25T07:02:49;99760.47;;;20.98;32.77
76973;BME280;65907;53.640;10.050;2023-02-25T07:05:14;99764.53;;;21.45;35.13
76973;BME280;65907;53.640;10.050;2023-02-25T07:07:39;99757.44;;;21.90;35.34
76973;BME280;65907;53.640;10.050;2023-02-25T07:10:05;99762.81;;;21.88;35.17
76973;BME280;65907;53.640;10.050;2023-02-25T07:12:32;99770.22;;;22.01;35.09
76973;BME280;65907;53.640;10.050;2023-02-25T07:14:58;99773.56;;;22.20;34.80
76973;BME280;65907;53.640;10.050;2023-02-25T07:17:23;99774.75;;;22.34;34.86
76973;BME280;65907;53.640;10.050;2023-02-25T07:19:49;99770.34;;;22.34;34.86
76973;BME280;65907;53.640;10.050;2023-02-25T07:22:14;99769.25;;;22.54;34.71
76973;BME280;65907;53.640;10.050;2023-02-25T07:24:40;99776.13;;;22.55;35.11
76973;BME280;65907;53.640;10.050;2023-02-25T07:27:06;99780.56;;;22.71;34.64
76973;BME280;65907;53.640;10.050;2023-02-25T07:29:33;99779.91;;;22.60;34.97
76973;BME280;65907;53.640;10.050;2023-02-25T07:31:58;99790.72;;;22.57;35.22
76973;BME280;65907;53.640;10.050;2023-02-25T07:34:24;99791.66;;;22.48;35.52
76973;BME280;65907;53.640;10.050;2023-02-25T07:36:49;99788.91;;;22.49;35.65
76973;BME280;65907;53.640;10.050;2023-02-25T07:39:15;99786.94;;;22.52;35.72
76973;BME280;65907;53.640;10.050;2023-02-25T07:41:45;99789.72;;;22.50;35.86
76973;BME280;65907;53.640;10.050;2023-02-25T07:44:11;99790.31;;;22.44;36.16
76973;BME280;65907;53.640;10.050;2023-02-25T07:46:36;99800.88;;;22.60;36.01
76973;BME280;65907;53.640;10.050;2023-02-25T07:49:02;99799.38;;;22.58;36.05
76973;BME280;65907;53.640;10.050;2023-02-25T07:51:28;99798.75;;;22.72;35.78
76973;BME280;65907;53.640;10.050;2023-02-25T07:53:54;99809.56;;;22.69;36.06
76973;BME280;65907;53.640;10.050;2023-02-25T07:56:22;99811.53;;;22.75;36.00
76973;BME280;65907;53.640;10.050;2023-02-25T07:58:48;99803.19;;;22.80;35.92
76973;BME280;65907;53.640;10.050;2023-02-25T08:01:23;99802.72;;;22.85;35.81
76973;BME280;65907;53.640;10.050;2023-02-25T08:03:50;99806.31;;;22.84;36.05
76973;BME280;65907;53.640;10.050;2023-02-25T08:06:15;99803.66;;;22.75;36.26
76973;BME280;65907;53.640;10.050;2023-02-25T08:08:43;99800.75;;;22.87;35.93
76973;BME280;65907;53.640;10.050;2023-02-25T08:11:09;99810.22;;;22.63;36.20
76973;BME280;65907;53.640;10.050;2023-02-25T08:13:35;99812.50;;;22.74;35.43
76973;BME280;65907;53.640;10.050;2023-02-25T08:16:10;99813.00;;;22.70;35.98
76973;BME280;65907;53.640;10.050;2023-02-25T08:18:36;99814.00;;;23.02;35.35
76973;BME280;65907;53.640;10.050;2023-02-25T08:21:01;99814.50;;;23.39;34.96
76973;BME280;65907;53.640;10.050;2023-02-25T08:23:28;99818.09;;;23.46;34.98
76973;BME280;65907;53.640;10.050;2023-02-25T08:25:58;99815.78;;;23.59;35.12
76973;BME280;65907;53.640;10.050;2023-02-25T08:28:24;99817.56;;;23.67;34.77
76973;BME280;65907;53.640;10.050;2023-02-25T08:30:50;99814.78;;;23.52;34.98
76973;BME280;65907;53.640;10.050;2023-02-25T08:33:19;99817.63;;;23.34;35.39
76973;BME280;65907;53.640;10.050;2023-02-25T08:35:49;99818.41;;;22.68;36.40
76973;BME280;65907;53.640;10.050;2023-02-25T08:38:14;99818.28;;;22.35;35.78
76973;BME280;65907;53.640;10.050;2023-02-25T08:40:39;99818.63;;;22.32;35.58
76973;BME280;65907;53.640;10.050;2023-02-25T08:43:05;99833.34;;;22.33;35.54
76973;BME280;65907;53.640;10.050;2023-02-25T08:45:31;99832.81;;;22.21;36.04
76973;BME280;65907;53.640;10.050;2023-02-25T08:47:56;99826.50;;;22.40;36.58
76973;BME280;65907;53.640;10.050;2023-02-25T08:50:21;99839.00;;;22.12;36.46
76973;BME280;65907;53.640;10.050;2023-02-25T08:52:48;99833.56;;;22.05;36.32
76973;BME280;65907;53.640;10.050;2023-02-25T08:55:13;99839.63;;;22.40;36.09
76973;BME280;65907;53.640;10.050;2023-02-25T08:57:41;99837.09;;;22.73;35.77
76973;BME280;65907;53.640;10.050;2023-02-25T09:00:07;99839.19;;;22.61;35.49
76973;BME280;65907;53.640;10.050;2023-02-25T09:02:33;99844.44;;;22.18;36.41
76973;BME280;65907;53.640;10.050;2023-02-25T09:04:58;99847.53;;;22.57;35.87
76973;BME280;65907;53.640;10.050;2023-02-25T09:07:28;99849.69;;;22.70;35.14
76973;BME280;65907;53.640;10.050;2023-02-25T09:09:53;99848.22;;;22.75;35.23
76973;BME280;65907;53.640;10.050;2023-02-25T09:12:18;99850.66;;;22.69;35.65
76973;BME280;65907;53.640;10.050;2023-02-25T09:14:43;99860.00;;;22.71;35.66
76973;BME280;65907;53.640;10.050;2023-02-25T09:17:09;99867.13;;;22.44;35.97
76973;BME280;65907;53.640;10.050;2023-02-25T09:19:39;99868.34;;;22.58;35.89
76973;BME280;65907;53.640;10.050;2023-02-25T09:22:05;99880.25;;;22.53;36.77
76973;BME280;65907;53.640;10.050;2023-02-25T09:24:33;99876.97;;;22.16;37.20
76973;BME280;65907;53.640;10.050;2023-02-25T09:26:59;99873.09;;;22.63;36.32
76973;BME280;65907;53.640;10.050;2023-02-25T09:29:27;99888.91;;;22.10;35.58
76973;BME280;65907;53.640;10.050;2023-02-25T09:31:52;99885.22;;;21.68;37.79
76973;BME280;65907;53.640;10.050;2023-02-25T09:34:18;99891.47;;;22.02;36.78
76973;BME280;65907;53.640;10.050;2023-02-25T09:36:46;99902.53;;;22.48;36.23
76973;BME280;65907;53.640;10.050;2023-02-25T09:39:11;99923.69;;;22.29;36.77
76973;BME280;65907;53.640;10.050;2023-02-25T09:41:54;99921.28;;;22.44;36.85
76973;BME280;65907;53.640;10.050;2023-02-25T09:44:33;99923.34;;;22.50;36.49
76973;BME280;65907;53.640;10.050;2023-02-25T09:47:02;99931.97;;;22.16;36.37
76973;BME280;65907;53.640;10.050;2023-02-25T09:49:41;99936.34;;;21.08;36.37
76973;BME280;65907;53.640;10.050;2023-02-25T09:52:34;99936.13;;;21.01;37.94
76973;BME280;65907;53.640;10.050;2023-02-25T09:55:10;99944.88;;;21.46;36.65
76973;BME280;65907;53.640;10.050;2023-02-25T09:57:39;99948.75;;;21.60;37.09
76973;BME280;65907;53.640;10.050;2023-02-25T10:00:09;99949.13;;;21.84;37.26
76973;BME280;65907;53.640;10.050;2023-02-25T10:02:46;99955.53;;;21.89;36.72
76973;BME280;65907;53.640;10.050;2023-02-25T10:05:25;99958.63;;;22.46;35.56
76973;BME280;65907;53.640;10.050;2023-02-25T10:10:26;99976.94;;;22.38;35.32
76973;BME280;65907;53.640;10.050;2023-02-25T10:15:23;99989.72;;;22.41;35.32
76973;BME280;65907;53.640;10.050;2023-02-25T10:18:04;99990.06;;;22.46;35.25
76973;BME280;65907;53.640;10.050;2023-02-25T10:23:08;99991.84;;;22.11;35.85
76973;BME280;65907;53.640;10.050;2023-02-25T10:25:38;99990.97;;;22.55;35.31
76973;BME280;65907;53.640;10.050;2023-02-25T10:28:10;99997.25;;;22.70;34.76
76973;BME280;65907;53.640;10.050;2023-02-25T10:33:13;100000.81;;;22.96;34.51
76973;BME280;65907;53.640;10.050;2023-02-25T10:35:39;100005.06;;;22.97;34.23
76973;BME280;65907;53.640;10.050;2023-02-25T10:38:08;100000.28;;;22.92;34.31
76973;BME280;65907;53.640;10.050;2023-02-25T10:40:38;100013.09;;;22.95;34.30
76973;BME280;65907;53.640;10.050;2023-02-25T10:43:17;100023.06;;;22.91;34.33
76973;BME280;65907;53.640;10.050;2023-02-25T10:45:43;100018.19;;;22.97;34.24
76973;BME280;65907;53.640;10.050;2023-02-25T10:48:13;100020.28;;;22.93;34.48
76973;BME280;65907;53.640;10.050;2023-02-25T10:50:41;100024.75;;;23.01;34.31
76973;BME280;65907;53.640;10.050;2023-02-25T10:53:14;100023.25;;;22.98;34.09
76973;BME280;65907;53.640;10.050;2023-02-25T10:58:24;100029.94;;;22.92;34.15
76973;BME280;65907;53.640;10.050;2023-02-25T11:00:54;100032.94;;;22.98;34.24
76973;BME280;65907;53.640;10.050;2023-02-25T11:03:20;100033.59;;;23.00;34.29
76973;BME280;65907;53.640;10.050;2023-02-25T11:05:47;100031.13;;;22.98;34.59
76973;BME280;65907;53.640;10.050;2023-02-25T11:08:30;100032.63;;;23.01;34.40
76973;BME280;65907;53.640;10.050;2023-02-25T11:11:01;100033.09;;;23.04;34.24
76973;BME280;65907;53.640;10.050;2023-02-25T11:13:27;100038.06;;;23.08;34.20
76973;BME280;65907;53.640;10.050;2023-02-25T11:16:03;100039.69;;;23.09;34.20
76973;BME280;65907;53.640;10.050;2023-02-25T11:18:30;100036.75;;;23.12;34.05
76973;BME280;65907;53.640;10.050;2023-02-25T11:20:59;100045.41;;;23.12;34.07
76973;BME280;65907;53.640;10.050;2023-02-25T11:23:31;100038.72;;;23.18;34.22
76973;BME280;65907;53.640;10.050;2023-02-25T11:26:00;100048.38;;;23.17;33.74
76973;BME280;65907;53.640;10.050;2023-02-25T11:28:47;100062.19;;;23.19;33.96
76973;BME280;65907;53.640;10.050;2023-02-25T11:33:37;100071.03;;;23.18;34.04
76973;BME280;65907;53.640;10.050;2023-02-25T11:36:03;100072.81;;;23.18;33.83
76973;BME280;65907;53.640;10.050;2023-02-25T11:38:40;100074.47;;;23.19;34.07
76973;BME280;65907;53.640;10.050;2023-02-25T11:41:16;100075.09;;;23.13;34.14
76973;BME280;65907;53.640;10.050;2023-02-25T11:43:44;100075.09;;;23.13;33.88
76973;BME280;65907;53.640;10.050;2023-02-25T11:46:20;100074.59;;;23.17;33.93
76973;BME280;65907;53.640;10.050;2023-02-25T11:56:50;100085.41;;;23.14;34.05
76973;BME280;65907;53.640;10.050;2023-02-25T11:59:30;100094.75;;;23.09;34.02
76973;BME280;65907;53.640;10.050;2023-02-25T12:12:42;100094.13;;;23.15;34.04
76973;BME280;65907;53.640;10.050;2023-02-25T12:25:42;100122.06;;;22.98;34.09
76973;BME280;65907;53.640;10.050;2023-02-25T12:34:01;100127.06;;;22.83;34.30
76973;BME280;65907;53.640;10.050;2023-02-25T12:39:18;100135.47;;;22.95;34.13
76973;BME280;65907;53.640;10.050;2023-02-25T12:44:20;100137.69;;;23.08;33.83
76973;BME280;65907;53.640;10.050;2023-02-25T13:04:22;100154.22;;;23.08;33.95
76973;BME280;65907;53.640;10.050;2023-02-25T13:06:57;100167.88;;;23.12;33.76
76973;BME280;65907;53.640;10.050;2023-02-25T13:37:52;100193.66;;;22.98;33.88
76973;BME280;65907;53.640;10.050;2023-02-25T13:43:12;100198.91;;;22.98;33.69
76973;BME280;65907;53.640;10.050;2023-02-25T13:48:23;100201.53;;;22.98;33.80
76973;BME280;65907;53.640;10.050;2023-02-25T13:51:00;100200.34;;;22.92;33.68
76973;BME280;65907;53.640;10.050;2023-02-25T14:01:19;100214.28;;;22.93;33.73
76973;BME280;65907;53.640;10.050;2023-02-25T14:04:23;100215.47;;;22.99;33.71
76973;BME280;65907;53.640;10.050;2023-02-25T14:07:04;100215.28;;;22.92;33.74
76973;BME280;65907;53.640;10.050;2023-02-25T14:09:41;100215.41;;;22.90;33.92
76973;BME280;65907;53.640;10.050;2023-02-25T14:19:52;100229.25;;;23.01;33.51
76973;BME280;65907;53.640;10.050;2023-02-25T14:25:19;100246.13;;;22.98;33.55
76973;BME280;65907;53.640;10.050;2023-02-25T14:30:37;100250.25;;;23.01;33.52
76973;BME280;65907;53.640;10.050;2023-02-25T14:38:15;100259.88;;;23.00;33.68
76973;BME280;65907;53.640;10.050;2023-02-25T14:45:42;100271.63;;;23.14;33.25
76973;BME280;65907;53.640;10.050;2023-02-25T14:48:15;100279.13;;;23.09;33.51
76973;BME280;65907;53.640;10.050;2023-02-25T14:50:45;100274.25;;;23.14;33.42
76973;BME280;65907;53.640;10.050;2023-02-25T15:12:43;100308.38;;;22.96;33.55
76973;BME280;65907;53.640;10.050;2023-02-25T15:20:43;100330.47;;;22.75;33.80
76973;BME280;65907;53.640;10.050;2023-02-25T15:23:12;100336.25;;;22.79;33.53
76973;BME280;65907;53.640;10.050;2023-02-25T15:25:50;100331.63;;;21.12;28.91
76973;BME280;65907;53.640;10.050;2023-02-25T15:38:20;100355.41;;;21.48;32.46
76973;BME280;65907;53.640;10.050;2023-02-25T15:40:49;100360.84;;;21.84;32.30
76973;BME280;65907;53.640;10.050;2023-02-25T15:48:28;100356.56;;;22.21;31.44
76973;BME280;65907;53.640;10.050;2023-02-25T15:50:54;100366.13;;;22.02;31.99
76973;BME280;65907;53.640;10.050;2023-02-25T16:05:59;100386.53;;;22.65;31.20
76973;BME280;65907;53.640;10.050;2023-02-25T16:08:27;100386.72;;;22.63;31.55
76973;BME280;65907;53.640;10.050;2023-02-25T16:10:53;100388.72;;;22.51;32.21
76973;BME280;65907;53.640;10.050;2023-02-25T16:13:29;100386.34;;;22.76;31.34
76973;BME280;65907;53.640;10.050;2023-02-25T16:15:55;100399.66;;;22.65;31.76
76973;BME280;65907;53.640;10.050;2023-02-25T16:20:49;100402.94;;;22.67;31.52
76973;BME280;65907;53.640;10.050;2023-02-25T16:23:16;100406.03;;;22.62;31.71
76973;BME280;65907;53.640;10.050;2023-02-25T16:28:49;100417.91;;;22.56;31.69
76973;BME280;65907;53.640;10.050;2023-02-25T16:34:17;100426.88;;;22.54;31.42
76973;BME280;65907;53.640;10.050;2023-02-25T16:36:50;100427.03;;;22.52;31.69